Warrenton, Texas
Current Conditions -  °F | °C
As of 9:30 AM on Friday 19 Dec 2014 (Local Time) from K3T5 Reporting Station
Overcast Overcast  
Wind Chill: 53°   Ceiling: 1000
Heat Index: 53°   Visibility: 10mi
Dew Point: 51°   Wind: 10mph
Humidity: 95%   Direction: 20°NNE
Pressure: 30.09"   Gusts: NA
Location:  30.0108°N, 96.7162°W
Report Text: K3T5 191530Z AUTO 02009KT 10SM BKN010 OVC033 12/11 A3009 RMK AO2 T01160108
Loading
Personal Weather Stations






























Interactive Weather Map New forecast layout! Learn more

10-Day Weather Forecast

Advertisements
Track Severe Weather on mobile